Waikoloa, HI (96738)

6:26 AM HST on February 07, 2016 (GMT -1000)
Waikoloa Village | | Change Station
CLOSE
Current Station
Personal Weather Station
Location: Waikoloa Village, HI
Elevation: 994 ft
Nearby Weather Stations

Elev 994 ft 19.93 °N, 155.79 °W | Updated 10 minutes ago

Scattered Clouds
Scattered Clouds
66.7 °F
Feels Like 66.7 °F
N
11.4
Wind Variable Wind from East

Today
High -- | Low -- °F
--% Chance of Precip.
Yesterday
High -- | Low -- °F
Precip. -- in
Pressure 29.94 in
Visibility 10.0 miles
Clouds Scattered Clouds 11000 ft
Dew Point 63 °F
Humidity 87%
Rainfall 0.66 in
Snow Depth Not available.
6:56 AM 6:18 PM
Waning Crescent, 1% visible
METAR PHKO 071553Z 06004KT 10SM SCT110 21/18 A2993 RMK AO2 SLP137 T02110183
Pressure 29.94 in
Visibility 10.0 miles
Clouds Scattered Clouds 11000 ft
Dew Point 63 °F
Humidity 87%
Rainfall 0.66 in
Snow Depth Not available.
6:56 AM 6:18 PM
Waning Crescent, 1% visible
METAR PHKO 071553Z 06004KT 10SM SCT110 21/18 A2993 RMK AO2 SLP137 T02110183

10-Day Weather Forecast

Almanac

Astronomy

Feb. 07, 2016 Rise Set
Actual Time
Civil Twilight
Nautical Twilight
Astronomical Twilight
Moon
Length of Visible Light
Length of Day
Tomorrow will be .
, % of the Moon is Illuminated

Today's Extremes

State Highs State Lows

Community

WunderPhotos

Upload Photos

1,891,221 photos uploaded!

WunderBlog® & News

Nearby

Air Quality

  Air Quality AQ Index Pollutant
Not available.

Snow Depth

Station Depth Elevation

Earthquake Activity

City Distance Mag. Time & Date
Minimum magnitude displayed is 2.5.

Coastal Water Temperatures

Place Temperature

Stations

Nearby Weather Stations

Station Location Temp. Windchill Dew Point Humidity Wind Precip. Elev Updated Type
                   

Watches & Warnings

There are currently no watches in effect.